createdAt,value
2023-04-13T00:01:38.562Z,88.17
2023-04-13T00:04:43.277Z,88.15
2023-04-13T00:07:45.737Z,87.70
2023-04-13T00:10:52.083Z,88.04
2023-04-13T00:13:55.449Z,87.86
2023-04-13T00:16:58.006Z,87.27
2023-04-13T00:20:00.692Z,87.41
2023-04-13T00:23:03.412Z,87.86
2023-04-13T00:26:05.981Z,87.59
2023-04-13T00:29:08.471Z,87.64
2023-04-13T00:32:11.462Z,88.02
2023-04-13T00:35:19.367Z,87.69
2023-04-13T00:38:24.225Z,86.60
2023-04-13T00:41:28.829Z,86.72
2023-04-13T00:44:30.992Z,86.31
2023-04-13T00:47:36.971Z,87.74
2023-04-13T00:50:40.248Z,86.94
2023-04-13T00:53:43.470Z,87.15
2023-04-13T00:56:45.738Z,86.74
2023-04-13T00:59:49.613Z,86.61
2023-04-13T01:02:53.962Z,87.02
2023-04-13T01:06:07.353Z,87.03
2023-04-13T01:09:15.458Z,87.11
2023-04-13T01:12:19.663Z,86.23
2023-04-13T01:15:23.794Z,86.31
2023-04-13T01:18:27.849Z,85.92
2023-04-13T01:21:32.999Z,86.60
2023-04-13T01:24:46.869Z,85.36
2023-04-13T01:27:55.567Z,85.95
2023-04-13T01:30:58.843Z,85.37
2023-04-13T01:34:02.260Z,85.25
2023-04-13T01:37:04.454Z,85.20
2023-04-13T01:40:13.847Z,85.75
2023-04-13T01:43:25.289Z,86.64
2023-04-13T01:46:46.571Z,86.30
2023-04-13T01:50:28.478Z,85.51
2023-04-13T01:53:43.170Z,85.38
2023-04-13T01:56:49.400Z,84.91
2023-04-13T01:59:52.168Z,84.51
2023-04-13T02:02:56.659Z,85.72
2023-04-13T02:05:58.945Z,84.44
2023-04-13T02:09:01.506Z,84.63
2023-04-13T02:12:03.765Z,84.89
2023-04-13T02:15:06.894Z,84.57
2023-04-13T02:18:12.267Z,83.97
2023-04-13T02:21:15.031Z,84.28
2023-04-13T02:24:17.238Z,83.76
2023-04-13T02:27:20.512Z,83.70
2023-04-13T02:30:23.623Z,84.19
2023-04-13T02:33:30.412Z,84.04
2023-04-13T02:36:33.167Z,84.67
2023-04-13T02:39:41.304Z,83.95
2023-04-13T02:42:44.232Z,84.69
2023-04-13T02:45:47.451Z,84.80
2023-04-13T02:48:51.648Z,84.18
2023-04-13T02:51:54.298Z,83.44
2023-04-13T02:55:06.985Z,83.39
2023-04-13T02:58:35.585Z,83.59
2023-04-13T03:01:43.546Z,83.97
2023-04-13T03:04:47.773Z,82.98
2023-04-13T03:07:51.236Z,83.97
2023-04-13T03:10:54.966Z,83.21
2023-04-13T03:13:59.239Z,83.38
2023-04-13T03:17:01.898Z,82.92
2023-04-13T03:20:13.558Z,82.59
2023-04-13T03:23:23.833Z,82.25
2023-04-13T03:26:27.397Z,82.46
2023-04-13T03:29:32.476Z,83.44
2023-04-13T03:32:34.916Z,83.40
2023-04-13T03:35:37.153Z,82.81
2023-04-13T03:38:43.198Z,83.53
2023-04-13T03:41:46.265Z,82.59
2023-04-13T03:44:48.301Z,83.34
2023-04-13T03:47:51.942Z,82.38
2023-04-13T03:50:57.500Z,82.96
2023-04-13T03:54:06.872Z,82.48
2023-04-13T03:57:10.204Z,82.36
2023-04-13T04:00:14.473Z,81.95
2023-04-13T04:03:25.876Z,82.17
2023-04-13T04:06:39.515Z,82.05
2023-04-13T04:09:46.701Z,82.33
2023-04-13T04:12:51.880Z,82.34
2023-04-13T04:15:54.842Z,82.00
2023-04-13T04:18:58.382Z,81.85
2023-04-13T04:22:30.236Z,83.56
2023-04-13T04:25:34.795Z,85.19
2023-04-13T04:28:40.375Z,88.54
2023-04-13T04:31:46.203Z,91.89
2023-04-13T04:34:53.079Z,92.81
2023-04-13T04:37:58.235Z,90.84
2023-04-13T04:41:02.366Z,90.43
2023-04-13T04:44:08.973Z,89.76
2023-04-13T04:47:20.084Z,89.72
2023-04-13T04:50:50.602Z,88.80
2023-04-13T04:53:58.093Z,89.41
2023-04-13T04:57:10.568Z,91.18
2023-04-13T05:00:18.184Z,91.32
2023-04-13T05:03:34.337Z,91.82
2023-04-13T05:07:04.268Z,93.90
2023-04-13T05:10:11.793Z,93.01
2023-04-13T05:13:19.388Z,91.81
2023-04-13T05:16:31.969Z,92.14
2023-04-13T05:19:40.125Z,92.49
2023-04-13T05:22:51.088Z,91.69
2023-04-13T05:25:58.790Z,90.02
2023-04-13T05:29:04.922Z,90.98
2023-04-13T05:32:10.713Z,91.24
2023-04-13T05:35:13.318Z,91.10
2023-04-13T05:38:46.230Z,90.11
2023-04-13T05:41:51.402Z,90.24
2023-04-13T05:44:55.496Z,91.48
2023-04-13T05:47:57.774Z,90.43
2023-04-13T05:51:03.892Z,90.21
2023-04-13T05:54:14.015Z,88.77
2023-04-13T05:57:23.295Z,87.57
2023-04-13T06:00:28.835Z,86.44
2023-04-13T06:03:39.037Z,86.34
2023-04-13T06:06:45.361Z,83.61
2023-04-13T06:09:52.440Z,77.34
2023-04-13T06:12:55.806Z,77.86
2023-04-13T06:15:58.296Z,77.07
2023-04-13T06:19:02.405Z,74.92
2023-04-13T06:22:08.363Z,73.31
2023-04-13T06:25:14.141Z,74.27
2023-04-13T06:28:19.188Z,74.74
2023-04-13T06:31:28.039Z,73.06
2023-04-13T06:34:37.315Z,72.11
2023-04-13T06:37:45.518Z,74.17
2023-04-13T06:40:52.791Z,73.19
2023-04-13T06:43:57.040Z,73.82
2023-04-13T06:47:09.295Z,74.45
2023-04-13T06:50:14.290Z,72.45
2023-04-13T06:53:18.592Z,73.33
2023-04-13T06:56:21.719Z,72.71
2023-04-13T06:59:32.180Z,73.10
2023-04-13T07:02:43.592Z,73.22
2023-04-13T07:05:48.546Z,74.12
2023-04-13T07:08:53.764Z,73.72
2023-04-13T07:12:03.955Z,74.92
2023-04-13T07:15:18.095Z,74.58
2023-04-13T07:18:22.674Z,75.15
2023-04-13T07:21:30.032Z,74.40
2023-04-13T07:24:38.647Z,75.25
2023-04-13T07:27:44.771Z,74.18
2023-04-13T07:30:47.802Z,74.81
2023-04-13T07:33:51.143Z,75.21
2023-04-13T07:36:58.769Z,75.08
2023-04-13T07:40:01.208Z,74.65
2023-04-13T07:43:06.502Z,75.07
2023-04-13T07:46:14.223Z,76.47
2023-04-13T07:49:20.548Z,76.40
2023-04-13T07:52:23.330Z,75.63
2023-04-13T07:55:28.251Z,77.57
2023-04-13T07:58:31.496Z,76.59
2023-04-13T08:01:37.335Z,76.82
2023-04-13T08:04:40.252Z,79.23
2023-04-13T08:07:49.240Z,77.57
2023-04-13T08:10:52.173Z,77.03
2023-04-13T08:14:24.231Z,78.13
2023-04-13T08:18:41.660Z,79.87
2023-04-13T08:21:53.986Z,78.82
2023-04-13T08:24:58.133Z,82.22
2023-04-13T08:28:05.615Z,83.84
2023-04-13T08:31:13.308Z,85.22
2023-04-13T08:34:23.653Z,86.94
2023-04-13T08:37:29.864Z,85.34
2023-04-13T08:40:38.673Z,91.16
2023-04-13T08:43:47.023Z,93.75
2023-04-13T08:46:52.579Z,96.18
2023-04-13T08:50:02.868Z,98.90
2023-04-13T08:53:18.447Z,100.00
2023-04-13T08:56:31.049Z,100.00
2023-04-13T08:59:43.847Z,100.00
2023-04-13T09:03:03.915Z,100.00
2023-04-13T09:06:12.772Z,100.00
2023-04-13T09:09:15.728Z,100.00
2023-04-13T09:12:18.267Z,100.00
2023-04-13T09:15:21.060Z,100.00
2023-04-13T09:18:50.875Z,100.00
2023-04-13T09:31:11.191Z,100.00
2023-04-13T09:34:14.853Z,100.00
2023-04-13T09:37:18.861Z,100.00
2023-04-13T09:40:22.814Z,100.00
2023-04-13T09:43:36.891Z,100.00
2023-04-13T09:46:40.230Z,99.67
2023-04-13T09:49:44.024Z,100.00
2023-04-13T09:52:51.621Z,100.00
2023-04-13T09:56:00.552Z,100.00
2023-04-13T09:59:02.805Z,100.00
2023-04-13T10:02:06.191Z,100.00
2023-04-13T10:05:13.400Z,100.00
2023-04-13T10:08:21.655Z,100.00
2023-04-13T10:11:29.976Z,100.00
2023-04-13T10:14:36.267Z,100.00
2023-04-13T10:18:19.949Z,100.00
2023-04-13T10:21:22.582Z,100.00
2023-04-13T10:24:25.673Z,100.00
2023-04-13T10:27:28.566Z,100.00
2023-04-13T10:30:31.061Z,100.00
2023-04-13T10:33:34.257Z,100.00
2023-04-13T10:36:47.416Z,100.00
2023-04-13T10:40:00.939Z,100.00
2023-04-13T10:43:08.724Z,100.00
2023-04-13T10:46:16.174Z,100.00
2023-04-13T10:49:18.408Z,100.00
2023-04-13T10:52:21.478Z,100.00
2023-04-13T10:55:44.997Z,100.00
2023-04-13T10:58:56.430Z,100.00
2023-04-13T11:02:09.039Z,100.00
2023-04-13T11:05:20.895Z,100.00
2023-04-13T11:08:28.918Z,100.00
2023-04-13T11:11:31.573Z,100.00
2023-04-13T11:14:36.240Z,100.00
2023-04-13T11:17:38.477Z,100.00
2023-04-13T11:20:43.815Z,100.00
2023-04-13T11:23:53.830Z,100.00
2023-04-13T11:26:58.192Z,100.00
2023-04-13T11:30:05.987Z,100.00
2023-04-13T11:33:10.126Z,100.00
2023-04-13T11:36:17.553Z,100.00
2023-04-13T11:39:22.565Z,100.00
2023-04-13T11:42:27.956Z,100.00
2023-04-13T11:45:30.656Z,100.00
2023-04-13T11:48:34.056Z,100.00
2023-04-13T11:51:41.280Z,100.00
2023-04-13T11:54:44.917Z,100.00
2023-04-13T11:57:58.860Z,100.00
2023-04-13T12:01:14.045Z,100.00
2023-04-13T12:04:20.112Z,100.00
2023-04-13T12:07:23.716Z,100.00
2023-04-13T12:10:43.558Z,100.00
2023-04-13T12:14:07.279Z,100.00
2023-04-13T12:20:21.304Z,100.00
2023-04-13T12:23:27.919Z,100.00
2023-04-13T12:29:41.658Z,100.00
2023-04-13T12:32:54.751Z,100.00
2023-04-13T12:35:57.623Z,100.00
2023-04-13T12:39:01.271Z,100.00
2023-04-13T12:42:03.882Z,100.00
2023-04-13T12:45:11.377Z,100.00
2023-04-13T12:48:13.510Z,100.00
2023-04-13T12:51:15.827Z,100.00
2023-04-13T12:54:18.429Z,100.00
2023-04-13T12:57:20.485Z,100.00
2023-04-13T13:00:36.019Z,100.00
2023-04-13T13:03:39.199Z,100.00
2023-04-13T13:10:30.000Z,100.00
2023-04-13T13:13:57.465Z,100.00
2023-04-13T13:17:01.274Z,100.00
2023-04-13T13:20:27.892Z,100.00
2023-04-13T13:23:30.411Z,100.00
2023-04-13T13:27:00.301Z,100.00
2023-04-13T13:30:05.193Z,100.00
2023-04-13T13:33:08.517Z,100.00
2023-04-13T13:36:14.652Z,100.00
2023-04-13T13:39:23.560Z,100.00
2023-04-13T13:42:32.447Z,100.00
2023-04-13T13:45:43.047Z,100.00
2023-04-13T13:48:46.605Z,100.00
2023-04-13T13:52:13.427Z,100.00
2023-04-13T13:55:23.035Z,100.00
2023-04-13T13:58:25.869Z,100.00
2023-04-13T14:01:28.443Z,100.00
2023-04-13T14:04:36.456Z,100.00
2023-04-13T14:07:44.813Z,100.00
2023-04-13T14:10:49.604Z,100.00
2023-04-13T14:13:55.672Z,100.00
2023-04-13T14:17:07.836Z,100.00
2023-04-13T14:20:12.286Z,100.00
2023-04-13T14:23:14.669Z,100.00
2023-04-13T14:26:21.055Z,100.00
2023-04-13T14:29:24.470Z,100.00
2023-04-13T14:32:29.934Z,100.00
2023-04-13T14:35:32.701Z,91.33
2023-04-13T14:38:35.472Z,75.25
2023-04-13T14:41:39.262Z,69.67
2023-04-13T14:44:42.120Z,65.92
2023-04-13T14:47:45.263Z,66.44
2023-04-13T14:50:49.735Z,66.73
2023-04-13T14:53:56.581Z,63.19
2023-04-13T14:57:03.470Z,61.40
2023-04-13T15:00:39.244Z,61.86
2023-04-13T15:03:41.845Z,61.69
2023-04-13T15:06:47.927Z,68.17
2023-04-13T15:09:53.821Z,67.37
2023-04-13T15:12:56.951Z,74.55
2023-04-13T15:15:59.290Z,74.91
2023-04-13T15:19:01.967Z,75.43
2023-04-13T15:22:04.465Z,77.67
2023-04-13T15:25:07.130Z,78.12
2023-04-13T15:28:11.268Z,78.33
2023-04-13T15:31:15.987Z,78.00
2023-04-13T15:34:18.129Z,79.27
2023-04-13T15:37:20.548Z,79.12
2023-04-13T15:40:27.665Z,80.29
2023-04-13T15:43:30.549Z,79.91
2023-04-13T15:46:32.869Z,80.19
2023-04-13T15:49:37.140Z,79.76
2023-04-13T15:52:40.012Z,80.15
2023-04-13T15:55:43.129Z,83.16
2023-04-13T15:58:47.512Z,86.71
2023-04-13T16:01:50.552Z,85.86
2023-04-13T16:04:54.178Z,89.80
2023-04-13T16:07:56.745Z,91.96
2023-04-13T16:11:02.570Z,95.05
2023-04-13T16:14:07.557Z,97.28
2023-04-13T16:17:10.551Z,98.19
2023-04-13T16:20:15.418Z,98.27
2023-04-13T16:23:18.989Z,94.45
2023-04-13T16:26:23.302Z,93.85
2023-04-13T16:29:27.244Z,93.12
2023-04-13T16:32:33.964Z,91.65
2023-04-13T16:35:37.016Z,92.68
2023-04-13T16:38:43.810Z,91.10
2023-04-13T16:41:48.537Z,90.99
2023-04-13T16:44:50.643Z,90.39
2023-04-13T16:47:53.815Z,90.45
2023-04-13T16:51:02.693Z,89.14
2023-04-13T16:54:18.317Z,92.26
2023-04-13T16:57:20.857Z,91.64
2023-04-13T17:00:23.357Z,90.76
2023-04-13T17:03:54.858Z,91.46
2023-04-13T17:07:07.460Z,90.82
2023-04-13T17:10:15.188Z,90.62
2023-04-13T17:13:26.175Z,91.08
2023-04-13T17:16:38.018Z,91.24
2023-04-13T17:19:42.009Z,92.35
2023-04-13T17:22:48.644Z,91.74
2023-04-13T17:25:56.803Z,91.14
2023-04-13T17:29:02.545Z,91.87
2023-04-13T17:32:06.205Z,91.22
2023-04-13T17:35:11.456Z,90.82
2023-04-13T17:38:23.260Z,91.70
2023-04-13T17:41:27.605Z,91.94
2023-04-13T17:44:35.257Z,92.48
2023-04-13T17:47:40.436Z,92.16
2023-04-13T17:50:42.626Z,93.28
2023-04-13T17:53:44.810Z,93.04
2023-04-13T17:56:47.972Z,92.17
2023-04-13T17:59:50.048Z,92.33
2023-04-13T18:02:52.869Z,92.88
2023-04-13T18:05:56.109Z,92.67
2023-04-13T18:08:58.504Z,93.23
2023-04-13T18:12:00.994Z,92.31
2023-04-13T18:15:03.655Z,93.63
2023-04-13T18:18:06.138Z,92.64
2023-04-13T18:21:08.494Z,92.49
2023-04-13T18:24:10.992Z,93.15
2023-04-13T18:42:40.934Z,89.60
2023-04-13T18:45:48.640Z,89.89
2023-04-13T18:48:55.091Z,90.04
2023-04-13T18:51:57.153Z,89.87
2023-04-13T18:54:59.526Z,89.86
2023-04-13T18:58:02.995Z,89.96
2023-04-13T19:01:55.372Z,89.38
2023-04-13T19:04:58.717Z,89.40
2023-04-13T19:08:04.046Z,89.36
2023-04-13T19:12:03.868Z,88.76
2023-04-13T19:15:10.271Z,90.17
2023-04-13T19:18:12.760Z,91.72
2023-04-13T19:21:40.973Z,91.63
2023-04-13T19:24:43.934Z,91.35
2023-04-13T19:32:11.073Z,91.04
2023-04-13T19:45:25.558Z,90.48
2023-04-13T19:49:13.031Z,90.85
2023-04-13T19:52:59.684Z,90.91
2023-04-13T19:56:30.776Z,90.89
2023-04-13T20:07:52.400Z,91.39
2023-04-13T20:11:01.364Z,92.60
2023-04-13T20:14:05.795Z,92.32
2023-04-13T20:17:16.444Z,91.67
2023-04-13T20:20:26.967Z,92.77
2023-04-13T20:23:35.870Z,92.71
2023-04-13T20:26:38.165Z,92.83
2023-04-13T20:29:42.009Z,91.86
2023-04-13T20:32:50.152Z,92.80
2023-04-13T20:35:55.034Z,91.18
2023-04-13T20:39:03.066Z,92.94
2023-04-13T20:42:09.546Z,92.85
2023-04-13T20:45:15.178Z,91.25
2023-04-13T20:51:49.906Z,92.20
2023-04-13T20:55:14.870Z,91.30
2023-04-13T20:58:18.942Z,91.03
2023-04-13T21:01:30.489Z,92.13
2023-04-13T21:04:35.092Z,91.13
2023-04-13T21:07:42.176Z,91.50
2023-04-13T21:10:47.879Z,91.43
2023-04-13T21:13:52.452Z,90.31
2023-04-13T21:16:55.635Z,91.49
2023-04-13T21:19:57.997Z,91.17
2023-04-13T21:23:01.426Z,91.35
2023-04-13T21:26:04.815Z,91.05
2023-04-13T21:29:16.741Z,90.23
2023-04-13T21:32:18.998Z,90.98
2023-04-13T21:35:21.182Z,91.01
2023-04-13T21:38:23.329Z,91.30
2023-04-13T21:41:25.380Z,91.21
2023-04-13T21:44:29.892Z,90.33
2023-04-13T21:47:32.524Z,90.14
2023-04-13T21:50:34.533Z,90.79
2023-04-13T21:53:37.196Z,91.26
2023-04-13T21:56:39.271Z,91.00
2023-04-13T21:59:41.455Z,90.39
2023-04-13T22:02:43.922Z,90.49
2023-04-13T22:05:46.240Z,90.12
2023-04-13T22:08:48.337Z,90.52
2023-04-13T22:11:51.582Z,89.95
2023-04-13T22:14:54.329Z,89.45
2023-04-13T22:17:56.754Z,89.22
2023-04-13T22:21:02.365Z,89.73
2023-04-13T22:24:04.612Z,89.46
2023-04-13T22:27:06.863Z,89.16
2023-04-13T22:30:09.476Z,88.37
2023-04-13T22:33:11.615Z,89.35
2023-04-13T22:36:19.561Z,87.96
2023-04-13T22:39:22.017Z,87.97
2023-04-13T22:42:24.168Z,88.27
2023-04-13T22:45:26.405Z,88.66
2023-04-13T22:48:29.302Z,88.79
2023-04-13T22:51:38.769Z,88.16
2023-04-13T22:54:40.863Z,87.93
2023-04-13T22:57:43.047Z,88.60
2023-04-13T23:00:45.175Z,88.70
2023-04-13T23:03:47.523Z,87.50
2023-04-13T23:06:53.789Z,87.67
2023-04-13T23:09:56.168Z,86.71
2023-04-13T23:12:59.145Z,87.64
2023-04-13T23:16:01.642Z,87.49
2023-04-13T23:19:03.941Z,87.39
2023-04-13T23:22:06.210Z,87.39
2023-04-13T23:25:08.667Z,86.72
2023-04-13T23:28:10.812Z,86.43
2023-04-13T23:31:13.309Z,85.74
2023-04-13T23:34:15.559Z,85.66
2023-04-13T23:37:17.574Z,86.79
2023-04-13T23:40:19.732Z,86.28
2023-04-13T23:43:22.838Z,85.27
2023-04-13T23:46:25.313Z,86.24
2023-04-13T23:49:27.345Z,86.26
2023-04-13T23:52:29.450Z,86.08
2023-04-13T23:55:31.428Z,85.44
2023-04-13T23:58:33.562Z,85.38
